Matlacha, Florida
Current Conditions -  °F | °C
As of 3:53 PM on Friday 19 Dec 2014 (Local Time) from KFMY Reporting Station
Clear Clear  
Wind Chill: 76°   Ceiling: Unl
Heat Index: 76°   Visibility: 10mi
Dew Point: 47°   Wind: 5mph
Humidity: 36%   Direction: 100°E
Pressure: 30.02"   Gusts: NA
Location:  26.6904°N, 82.0304°W
Report Text: KFMY 192053Z AUTO 10004KT 10SM CLR 24/08 A3002 RMK AO2 SLP166 T02440083 56014
Loading
Personal Weather Stations






























Interactive Weather Map New forecast layout! Learn more

10-Day Weather Forecast

Advertisements
Track Severe Weather on mobile